createdAt,value
2023-02-08T00:01:26.911Z,103998.63
2023-02-08T00:03:55.099Z,104008.31
2023-02-08T00:06:23.466Z,103992.56
2023-02-08T00:08:51.456Z,103993.31
2023-02-08T00:11:19.329Z,103993.78
2023-02-08T00:13:47.398Z,103988.63
2023-02-08T00:16:18.306Z,103989.16
2023-02-08T00:18:46.524Z,103987.72
2023-02-08T00:21:16.749Z,103990.31
2023-02-08T00:23:44.721Z,103986.56
2023-02-08T00:26:13.106Z,103983.59
2023-02-08T00:28:42.257Z,103979.38
2023-02-08T00:31:10.300Z,103976.91
2023-02-08T00:33:39.742Z,103977.81
2023-02-08T00:36:09.458Z,103977.38
2023-02-08T00:38:37.625Z,103983.59
2023-02-08T00:41:06.502Z,103981.75
2023-02-08T00:43:34.984Z,103983.72
2023-02-08T00:46:04.312Z,103978.16
2023-02-08T00:48:33.250Z,103989.75
2023-02-08T00:51:04.911Z,103986.16
2023-02-08T00:53:36.845Z,103990.25
2023-02-08T00:56:07.062Z,103987.25
2023-02-08T00:58:36.038Z,103987.19
2023-02-08T01:01:05.770Z,103989.56
2023-02-08T01:03:34.550Z,103988.34
2023-02-08T01:06:05.432Z,103990.16
2023-02-08T01:08:33.908Z,103995.47
2023-02-08T01:11:07.544Z,103999.47
2023-02-08T01:13:35.784Z,103994.69
2023-02-08T01:16:08.840Z,103984.09
2023-02-08T01:18:36.963Z,103988.78
2023-02-08T01:21:08.452Z,103980.13
2023-02-08T01:23:37.267Z,103991.88
2023-02-08T01:26:06.464Z,103985.72
2023-02-08T01:28:34.654Z,103986.31
2023-02-08T01:31:07.132Z,103981.78
2023-02-08T01:33:35.394Z,103983.03
2023-02-08T01:36:04.018Z,103979.25
2023-02-08T01:38:34.525Z,103981.84
2023-02-08T01:41:03.760Z,103984.44
2023-02-08T01:43:36.183Z,103981.91
2023-02-08T01:46:04.380Z,103983.41
2023-02-08T01:48:37.833Z,103982.84
2023-02-08T01:51:09.285Z,103988.09
2023-02-08T01:53:40.974Z,103998.34
2023-02-08T01:56:14.166Z,103987.66
2023-02-08T01:58:47.488Z,103980.09
2023-02-08T02:01:16.795Z,103985.72
2023-02-08T02:03:45.121Z,103982.28
2023-02-08T02:06:19.356Z,103992.09
2023-02-08T02:08:56.803Z,103988.63
2023-02-08T02:11:25.639Z,103981.06
2023-02-08T02:13:54.909Z,103985.38
2023-02-08T02:16:23.256Z,103976.88
2023-02-08T02:18:52.116Z,103975.97
2023-02-08T02:21:38.687Z,103972.13
2023-02-08T02:24:42.194Z,103973.72
2023-02-08T02:27:30.909Z,103965.81
2023-02-08T02:30:33.612Z,103965.97
2023-02-08T02:33:14.099Z,103953.78
2023-02-08T02:35:52.837Z,103960.06
2023-02-08T02:38:31.255Z,103958.19
2023-02-08T02:41:07.218Z,103949.34
2023-02-08T02:43:46.396Z,103957.66
2023-02-08T02:46:25.973Z,103952.78
2023-02-08T02:49:03.331Z,103951.69
2023-02-08T02:51:39.633Z,103950.00
2023-02-08T02:54:12.518Z,103949.81
2023-02-08T02:56:45.098Z,103957.97
2023-02-08T02:59:15.892Z,103947.44
2023-02-08T03:01:45.745Z,103942.34
2023-02-08T03:04:17.743Z,103947.00
2023-02-08T03:07:01.054Z,103946.31
2023-02-08T03:09:47.000Z,103949.31
2023-02-08T03:12:30.720Z,103951.19
2023-02-08T03:15:05.403Z,103952.19
2023-02-08T03:17:49.272Z,103949.38
2023-02-08T03:20:23.766Z,103950.53
2023-02-08T03:23:00.372Z,103945.00
2023-02-08T03:25:36.593Z,103948.53
2023-02-08T03:28:12.120Z,103950.41
2023-02-08T03:30:48.431Z,103951.91
2023-02-08T03:33:22.568Z,103941.31
2023-02-08T03:35:58.268Z,103943.91
2023-02-08T03:38:30.296Z,103956.81
2023-02-08T03:41:01.585Z,103953.81
2023-02-08T03:43:33.765Z,103949.97
2023-02-08T03:46:08.638Z,103939.94
2023-02-08T03:48:39.866Z,103950.03
2023-02-08T03:51:10.837Z,103948.38
2023-02-08T03:53:41.448Z,103950.19
2023-02-08T03:56:15.241Z,103954.59
2023-02-08T03:58:47.976Z,103955.47
2023-02-08T04:01:20.524Z,103943.91
2023-02-08T04:03:53.557Z,103946.72
2023-02-08T04:06:23.701Z,103947.94
2023-02-08T04:08:51.852Z,103946.19
2023-02-08T04:11:19.993Z,103948.63
2023-02-08T04:13:48.022Z,103936.69
2023-02-08T04:16:16.159Z,103935.28
2023-02-08T04:18:44.134Z,103934.22
2023-02-08T04:21:12.319Z,103931.28
2023-02-08T04:23:41.737Z,103929.47
2023-02-08T04:26:09.828Z,103930.28
2023-02-08T04:28:37.787Z,103938.88
2023-02-08T04:31:06.137Z,103943.09
2023-02-08T04:33:34.330Z,103937.50
2023-02-08T04:36:03.033Z,103936.63
2023-02-08T04:38:31.432Z,103937.25
2023-02-08T04:41:00.741Z,103940.75
2023-02-08T04:43:28.745Z,103934.38
2023-02-08T04:45:56.850Z,103932.44
2023-02-08T04:48:25.046Z,103937.72
2023-02-08T04:50:56.309Z,103937.69
2023-02-08T04:53:24.725Z,103944.25
2023-02-08T04:55:53.409Z,103948.88
2023-02-08T04:58:23.030Z,103954.91
2023-02-08T05:00:51.266Z,103942.31
2023-02-08T05:03:19.352Z,103950.19
2023-02-08T05:05:47.377Z,103937.69
2023-02-08T05:08:15.466Z,103945.13
2023-02-08T05:10:46.036Z,103952.44
2023-02-08T05:13:13.990Z,103943.72
2023-02-08T05:15:43.483Z,103934.81
2023-02-08T05:18:11.665Z,103934.47
2023-02-08T05:20:40.116Z,103932.69
2023-02-08T05:23:08.398Z,103936.63
2023-02-08T05:25:36.469Z,103940.44
2023-02-08T05:28:04.624Z,103939.88
2023-02-08T05:30:32.617Z,103935.94
2023-02-08T05:33:02.244Z,103925.09
2023-02-08T05:35:30.332Z,103925.22
2023-02-08T05:37:58.255Z,103920.59
2023-02-08T05:40:26.224Z,103922.19
2023-02-08T05:42:54.449Z,103921.50
2023-02-08T05:45:22.632Z,103915.91
2023-02-08T05:47:50.645Z,103915.81
2023-02-08T05:50:20.183Z,103932.00
2023-02-08T05:52:51.890Z,103929.69
2023-02-08T05:55:19.929Z,103926.00
2023-02-08T05:57:47.977Z,103928.50
2023-02-08T06:00:17.262Z,103924.91
2023-02-08T06:02:45.668Z,103924.66
2023-02-08T06:05:14.361Z,103913.75
2023-02-08T06:07:43.808Z,103918.94
2023-02-08T06:10:14.445Z,103918.13
2023-02-08T06:12:43.547Z,103924.28
2023-02-08T06:15:12.933Z,103928.06
2023-02-08T06:17:41.003Z,103926.09
2023-02-08T06:20:11.146Z,103920.59
2023-02-08T06:22:40.038Z,103925.16
2023-02-08T06:25:11.126Z,103926.22
2023-02-08T06:27:39.764Z,103924.56
2023-02-08T06:30:08.842Z,103921.00
2023-02-08T06:32:37.271Z,103922.66
2023-02-08T06:35:07.272Z,103920.75
2023-02-08T06:37:35.360Z,103929.88
2023-02-08T06:40:04.255Z,103927.97
2023-02-08T06:42:34.204Z,103922.66
2023-02-08T06:45:02.447Z,103926.16
2023-02-08T06:47:31.837Z,103932.56
2023-02-08T06:50:00.044Z,103932.91
2023-02-08T06:52:28.108Z,103931.06
2023-02-08T06:54:56.518Z,103925.53
2023-02-08T06:57:24.876Z,103933.66
2023-02-08T06:59:54.479Z,103926.38
2023-02-08T07:02:23.476Z,103931.75
2023-02-08T07:04:51.898Z,103930.88
2023-02-08T07:07:21.202Z,103927.66
2023-02-08T07:09:49.460Z,103930.16
2023-02-08T07:12:18.331Z,103923.13
2023-02-08T07:14:46.877Z,103924.13
2023-02-08T07:17:16.700Z,103926.75
2023-02-08T07:19:45.336Z,103926.13
2023-02-08T07:22:13.670Z,103924.28
2023-02-08T07:24:43.008Z,103920.75
2023-02-08T07:27:13.899Z,103912.69
2023-02-08T07:29:42.306Z,103908.94
2023-02-08T07:32:11.635Z,103901.63
2023-02-08T07:34:41.678Z,103903.09
2023-02-08T07:37:09.812Z,103905.66
2023-02-08T07:39:37.880Z,103894.09
2023-02-08T07:42:06.755Z,103897.72
2023-02-08T07:44:42.609Z,103889.75
2023-02-08T07:47:12.537Z,103883.28
2023-02-08T07:49:41.990Z,103876.88
2023-02-08T07:52:10.071Z,103874.34
2023-02-08T07:54:39.017Z,103878.34
2023-02-08T07:57:10.139Z,103880.84
2023-02-08T07:59:40.229Z,103879.25
2023-02-08T08:02:10.105Z,103880.91
2023-02-08T08:04:38.440Z,103866.31
2023-02-08T08:07:08.045Z,103873.50
2023-02-08T08:09:36.354Z,103866.97
2023-02-08T08:12:05.378Z,103871.34
2023-02-08T08:14:33.611Z,103869.88
2023-02-08T08:17:01.622Z,103875.59
2023-02-08T08:19:29.860Z,103870.22
2023-02-08T08:21:59.249Z,103870.22
2023-02-08T08:24:30.312Z,103864.69
2023-02-08T08:26:58.766Z,103866.38
2023-02-08T08:29:27.068Z,103868.00
2023-02-08T08:31:55.423Z,103860.78
2023-02-08T08:34:29.707Z,103864.13
2023-02-08T08:36:57.851Z,103856.16
2023-02-08T08:39:27.421Z,103861.63
2023-02-08T08:41:58.586Z,103854.69
2023-02-08T08:44:26.900Z,103849.47
2023-02-08T08:46:56.812Z,103839.88
2023-02-08T08:49:25.618Z,103840.41
2023-02-08T08:51:53.669Z,103839.41
2023-02-08T08:54:23.538Z,103840.94
2023-02-08T08:56:52.475Z,103849.88
2023-02-08T08:59:22.117Z,103854.19
2023-02-08T09:01:50.517Z,103859.50
2023-02-08T09:04:18.676Z,103862.41
2023-02-08T09:06:46.704Z,103865.28
2023-02-08T09:09:15.284Z,103865.09
2023-02-08T09:11:43.978Z,103872.34
2023-02-08T09:14:14.996Z,103866.09
2023-02-08T09:16:47.984Z,103869.81
2023-02-08T09:19:17.204Z,103883.22
2023-02-08T09:21:45.886Z,103877.72
2023-02-08T09:24:14.759Z,103884.84
2023-02-08T09:26:43.014Z,103886.91
2023-02-08T09:29:11.237Z,103890.38
2023-02-08T09:31:39.951Z,103892.34
2023-02-08T09:34:10.266Z,103889.66
2023-02-08T09:36:41.479Z,103893.50
2023-02-08T09:39:13.500Z,103890.56
2023-02-08T09:42:25.737Z,103890.06
2023-02-08T09:45:14.144Z,103892.72
2023-02-08T09:47:49.782Z,103896.44
2023-02-08T09:50:22.629Z,103898.88
2023-02-08T09:52:59.241Z,103898.00
2023-02-08T09:55:33.357Z,103903.00
2023-02-08T09:58:06.334Z,103904.44
2023-02-08T10:00:38.878Z,103887.69
2023-02-08T10:03:11.007Z,103897.34
2023-02-08T10:05:40.625Z,103898.94
2023-02-08T10:08:12.226Z,103890.78
2023-02-08T10:10:50.909Z,103892.25
2023-02-08T10:13:41.694Z,103897.66
2023-02-08T10:16:19.580Z,103892.81
2023-02-08T10:18:58.345Z,103893.94
2023-02-08T10:21:46.625Z,103893.72
2023-02-08T10:24:31.027Z,103889.59
2023-02-08T10:27:06.725Z,103886.91
2023-02-08T10:29:56.954Z,103895.09
2023-02-08T10:32:39.390Z,103885.84
2023-02-08T10:35:13.943Z,103890.34
2023-02-08T10:37:46.494Z,103884.38
2023-02-08T10:40:25.408Z,103891.00
2023-02-08T10:43:01.982Z,103885.63
2023-02-08T10:45:37.328Z,103875.59
2023-02-08T10:48:12.737Z,103877.03
2023-02-08T10:50:43.554Z,103872.16
2023-02-08T10:53:17.058Z,103862.69
2023-02-08T10:55:46.565Z,103858.03
2023-02-08T10:58:18.260Z,103853.38
2023-02-08T11:00:47.769Z,103856.91
2023-02-08T11:03:19.791Z,103857.03
2023-02-08T11:05:48.370Z,103854.00
2023-02-08T11:08:20.480Z,103842.50
2023-02-08T11:10:58.506Z,103820.22
2023-02-08T11:13:35.425Z,103821.69
2023-02-08T11:16:07.330Z,103822.53
2023-02-08T11:18:39.059Z,103815.63
2023-02-08T11:21:11.240Z,103815.19
2023-02-08T11:23:43.914Z,103811.94
2023-02-08T11:26:20.693Z,103807.53
2023-02-08T11:29:01.284Z,103802.69
2023-02-08T11:31:30.169Z,103799.06
2023-02-08T11:34:03.540Z,103795.97
2023-02-08T11:36:33.271Z,103797.47
2023-02-08T11:39:16.275Z,103787.47
2023-02-08T11:41:45.932Z,103780.31
2023-02-08T11:44:22.609Z,103782.53
2023-02-08T11:46:52.171Z,103795.13
2023-02-08T11:49:26.942Z,103783.41
2023-02-08T11:51:55.522Z,103785.59
2023-02-08T11:54:41.361Z,103784.78
2023-02-08T11:57:19.269Z,103772.47
2023-02-08T11:59:48.025Z,103781.75
2023-02-08T12:02:30.411Z,103774.47
2023-02-08T12:04:59.787Z,103773.34
2023-02-08T12:07:50.458Z,103765.50
2023-02-08T12:10:48.310Z,103772.13
2023-02-08T12:13:35.118Z,103767.47
2023-02-08T12:16:37.526Z,103764.81
2023-02-08T12:19:31.510Z,103757.41
2023-02-08T12:22:07.663Z,103767.59
2023-02-08T12:24:46.857Z,103750.91
2023-02-08T12:27:31.281Z,103749.00
2023-02-08T12:30:08.561Z,103750.34
2023-02-08T12:32:54.442Z,103741.63
2023-02-08T12:36:05.302Z,103737.03
2023-02-08T12:39:26.699Z,103740.16
2023-02-08T12:42:43.875Z,103730.16
2023-02-08T12:45:54.253Z,103723.19
2023-02-08T12:48:56.172Z,103728.53
2023-02-08T12:51:42.462Z,103719.06
2023-02-08T12:54:16.522Z,103713.47
2023-02-08T12:57:00.346Z,103704.88
2023-02-08T12:59:37.288Z,103694.59
2023-02-08T13:02:16.323Z,103694.13
2023-02-08T13:04:48.317Z,103695.06
2023-02-08T13:07:22.443Z,103684.56
2023-02-08T13:09:58.816Z,103689.50
2023-02-08T13:12:30.857Z,103687.66
2023-02-08T13:15:09.247Z,103681.78
2023-02-08T13:17:46.596Z,103677.56
2023-02-08T13:20:36.224Z,103674.25
2023-02-08T13:23:12.283Z,103674.47
2023-02-08T13:25:44.393Z,103670.69
2023-02-08T13:28:20.472Z,103656.72
2023-02-08T13:31:00.299Z,103650.22
2023-02-08T13:33:37.770Z,103645.06
2023-02-08T13:36:07.482Z,103639.09
2023-02-08T13:38:38.358Z,103631.03
2023-02-08T13:41:16.368Z,103627.09
2023-02-08T13:43:51.391Z,103618.69
2023-02-08T13:46:23.066Z,103614.75
2023-02-08T13:48:55.139Z,103603.41
2023-02-08T13:51:56.580Z,103600.28
2023-02-08T13:54:25.036Z,103595.34
2023-02-08T13:56:54.488Z,103588.94
2023-02-08T13:59:33.736Z,103579.69
2023-02-08T14:02:28.341Z,103572.13
2023-02-08T14:05:16.701Z,103567.72
2023-02-08T14:07:48.389Z,103568.97
2023-02-08T14:10:30.683Z,103557.56
2023-02-08T14:13:04.848Z,103561.75
2023-02-08T14:15:41.024Z,103553.22
2023-02-08T14:18:34.252Z,103560.06
2023-02-08T14:21:06.012Z,103559.91
2023-02-08T14:23:40.193Z,103549.75
2023-02-08T14:26:11.062Z,103552.66
2023-02-08T14:28:45.211Z,103545.19
2023-02-08T14:31:15.471Z,103548.53
2023-02-08T14:33:54.122Z,103546.16
2023-02-08T14:36:29.657Z,103539.97
2023-02-08T14:39:22.845Z,103536.41
2023-02-08T14:42:03.298Z,103527.69
2023-02-08T14:45:05.777Z,103531.84
2023-02-08T14:47:55.449Z,103530.16
2023-02-08T14:50:29.194Z,103520.72
2023-02-08T14:53:06.544Z,103521.34
2023-02-08T14:55:42.523Z,103524.13
2023-02-08T14:58:16.576Z,103519.19
2023-02-08T15:00:45.870Z,103505.78
2023-02-08T15:03:18.898Z,103508.13
2023-02-08T15:06:12.771Z,103503.41
2023-02-08T15:08:41.173Z,103492.06
2023-02-08T15:11:22.708Z,103485.53
2023-02-08T15:13:51.936Z,103487.09
2023-02-08T15:16:21.302Z,103481.06
2023-02-08T15:18:54.917Z,103477.16
2023-02-08T15:21:31.622Z,103478.06
2023-02-08T15:24:02.587Z,103472.59
2023-02-08T15:26:32.365Z,103469.97
2023-02-08T15:29:01.065Z,103471.94
2023-02-08T15:31:33.814Z,103476.28
2023-02-08T15:34:03.977Z,103472.44
2023-02-08T15:36:35.918Z,103481.06
2023-02-08T15:39:12.105Z,103469.31
2023-02-08T15:41:40.280Z,103465.03
2023-02-08T15:44:20.631Z,103470.06
2023-02-08T15:46:56.709Z,103461.59
2023-02-08T15:49:33.813Z,103468.38
2023-02-08T15:52:04.392Z,103466.44
2023-02-08T15:54:32.858Z,103456.31
2023-02-08T15:57:04.364Z,103452.81
2023-02-08T15:59:35.587Z,103444.53
2023-02-08T16:02:19.532Z,103449.97
2023-02-08T16:04:47.951Z,103445.63
2023-02-08T16:07:26.669Z,103446.22
2023-02-08T16:09:55.151Z,103440.00
2023-02-08T16:12:25.271Z,103433.19
2023-02-08T16:14:56.459Z,103428.06
2023-02-08T16:17:43.056Z,103428.66
2023-02-08T16:20:29.150Z,103432.97
2023-02-08T16:23:30.423Z,103426.84
2023-02-08T16:26:10.756Z,103431.28
2023-02-08T16:28:38.855Z,103424.22
2023-02-08T16:31:08.059Z,103431.19
2023-02-08T16:33:37.997Z,103435.34
2023-02-08T16:36:24.181Z,103444.28
2023-02-08T16:39:24.103Z,103437.69
2023-02-08T16:42:15.541Z,103438.53
2023-02-08T16:45:05.870Z,103431.47
2023-02-08T16:47:38.033Z,103429.97
2023-02-08T16:50:07.304Z,103426.06
2023-02-08T16:52:35.849Z,103418.53
2023-02-08T16:55:06.661Z,103423.31
2023-02-08T16:57:42.952Z,103423.69
2023-02-08T17:00:18.343Z,103415.34
2023-02-08T17:02:46.518Z,103414.22
2023-02-08T17:05:15.965Z,103419.31
2023-02-08T17:07:44.589Z,103415.88
2023-02-08T17:10:22.599Z,103411.78
2023-02-08T17:12:50.731Z,103407.41
2023-02-08T17:15:21.143Z,103404.88
2023-02-08T17:17:49.733Z,103411.78
2023-02-08T17:20:34.423Z,103401.53
2023-02-08T17:23:09.276Z,103396.88
2023-02-08T17:25:39.865Z,103390.94
2023-02-08T17:28:25.203Z,103387.44
2023-02-08T17:31:13.630Z,103392.25
2023-02-08T17:34:08.429Z,103391.66
2023-02-08T17:36:46.863Z,103390.78
2023-02-08T17:39:24.585Z,103391.53
2023-02-08T17:42:27.685Z,103392.66
2023-02-08T17:45:07.519Z,103389.72
2023-02-08T17:47:45.136Z,103391.13
2023-02-08T17:50:32.645Z,103378.75
2023-02-08T17:53:11.834Z,103383.28
2023-02-08T17:55:52.559Z,103377.72
2023-02-08T17:58:32.522Z,103370.72
2023-02-08T18:01:13.170Z,103361.88
2023-02-08T18:03:45.843Z,103371.31
2023-02-08T18:06:19.756Z,103366.94
2023-02-08T18:08:48.594Z,103373.78
2023-02-08T18:11:20.060Z,103365.66
2023-02-08T18:13:50.452Z,103377.63
2023-02-08T18:16:20.626Z,103365.97
2023-02-08T18:18:48.828Z,103360.44
2023-02-08T18:21:18.420Z,103358.63
2023-02-08T18:23:47.670Z,103364.56
2023-02-08T18:26:18.100Z,103365.53
2023-02-08T18:28:46.849Z,103356.59
2023-02-08T18:31:20.164Z,103356.03
2023-02-08T18:33:49.164Z,103355.50
2023-02-08T18:36:21.832Z,103352.38
2023-02-08T18:38:52.658Z,103354.09
2023-02-08T18:41:23.675Z,103345.19
2023-02-08T18:43:53.271Z,103345.75
2023-02-08T18:46:24.986Z,103346.31
2023-02-08T18:48:54.191Z,103344.47
2023-02-08T18:51:24.025Z,103345.59
2023-02-08T18:53:54.084Z,103342.66
2023-02-08T18:56:24.273Z,103345.88
2023-02-08T18:58:53.227Z,103343.16
2023-02-08T19:01:24.963Z,103338.91
2023-02-08T19:03:54.121Z,103343.88
2023-02-08T19:06:24.707Z,103347.53
2023-02-08T19:08:56.040Z,103352.34
2023-02-08T19:11:26.240Z,103352.06
2023-02-08T19:13:57.280Z,103348.75
2023-02-08T19:16:27.696Z,103348.81
2023-02-08T19:18:56.456Z,103338.69
2023-02-08T19:21:25.125Z,103340.78
2023-02-08T19:23:54.350Z,103340.94
2023-02-08T19:26:24.697Z,103337.97
2023-02-08T19:28:57.058Z,103341.72
2023-02-08T19:31:28.626Z,103341.94
2023-02-08T19:33:59.307Z,103333.44
2023-02-08T19:36:29.777Z,103339.72
2023-02-08T19:38:58.665Z,103334.31
2023-02-08T19:41:28.867Z,103326.28
2023-02-08T19:43:56.907Z,103329.78
2023-02-08T19:46:28.103Z,103327.25
2023-02-08T19:49:00.192Z,103323.63
2023-02-08T19:51:30.294Z,103327.06
2023-02-08T19:53:58.556Z,103320.44
2023-02-08T19:56:26.534Z,103324.50
2023-02-08T19:58:55.267Z,103317.91
2023-02-08T20:01:24.340Z,103321.34
2023-02-08T20:03:55.067Z,103324.13
2023-02-08T20:06:25.926Z,103321.56
2023-02-08T20:08:54.740Z,103337.53
2023-02-08T20:11:24.795Z,103332.13
2023-02-08T20:13:53.182Z,103324.75
2023-02-08T20:16:22.656Z,103309.47
2023-02-08T20:18:51.536Z,103306.50
2023-02-08T20:21:21.672Z,103307.34
2023-02-08T20:23:50.698Z,103305.25
2023-02-08T20:26:20.987Z,103303.41
2023-02-08T20:28:51.327Z,103295.84
2023-02-08T20:31:21.826Z,103306.38
2023-02-08T20:33:50.830Z,103300.16
2023-02-08T20:36:22.005Z,103302.94
2023-02-08T20:38:52.625Z,103297.28
2023-02-08T20:41:22.876Z,103297.69
2023-02-08T20:43:51.205Z,103302.53
2023-02-08T20:46:22.225Z,103300.22
2023-02-08T20:48:50.460Z,103290.66
2023-02-08T20:51:22.957Z,103296.06
2023-02-08T20:53:52.519Z,103294.34
2023-02-08T20:56:22.974Z,103284.88
2023-02-08T20:58:51.314Z,103291.31
2023-02-08T21:01:21.333Z,103289.88
2023-02-08T21:03:49.776Z,103286.41
2023-02-08T21:06:19.797Z,103291.16
2023-02-08T21:08:51.665Z,103288.69
2023-02-08T21:11:21.471Z,103276.34
2023-02-08T21:13:50.214Z,103280.47
2023-02-08T21:16:19.109Z,103280.41
2023-02-08T21:18:48.046Z,103285.66
2023-02-08T21:21:16.788Z,103273.56
2023-02-08T21:23:45.345Z,103286.38
2023-02-08T21:26:17.765Z,103276.56
2023-02-08T21:28:45.975Z,103272.75
2023-02-08T21:31:22.049Z,103270.31
2023-02-08T21:33:50.964Z,103270.13
2023-02-08T21:36:21.043Z,103264.00
2023-02-08T21:38:49.220Z,103269.72
2023-02-08T21:41:21.224Z,103276.06
2023-02-08T21:43:50.165Z,103269.47
2023-02-08T21:46:19.215Z,103258.75
2023-02-08T21:49:05.131Z,103256.91
2023-02-08T21:51:51.305Z,103248.38
2023-02-08T21:54:38.615Z,103247.00
2023-02-08T21:57:10.916Z,103238.25
2023-02-08T21:59:39.334Z,103249.06
2023-02-08T22:02:09.241Z,103229.47
2023-02-08T22:04:37.906Z,103229.41
2023-02-08T22:07:05.914Z,103223.75
2023-02-08T22:09:35.917Z,103220.13
2023-02-08T22:12:03.970Z,103218.72
2023-02-08T22:14:34.961Z,103220.28
2023-02-08T22:17:03.121Z,103228.78
2023-02-08T22:19:31.177Z,103223.53
2023-02-08T22:21:59.090Z,103213.88
2023-02-08T22:24:27.087Z,103222.28
2023-02-08T22:26:55.277Z,103217.03
2023-02-08T22:29:23.516Z,103216.69
2023-02-08T22:31:53.196Z,103205.94
2023-02-08T22:34:21.307Z,103201.34
2023-02-08T22:36:49.458Z,103198.78
2023-02-08T22:39:17.974Z,103190.91
2023-02-08T22:41:45.947Z,103190.16
2023-02-08T22:44:14.028Z,103193.00
2023-02-08T22:46:42.251Z,103180.53
2023-02-08T22:49:11.939Z,103182.22
2023-02-08T22:51:39.860Z,103182.59
2023-02-08T22:54:07.811Z,103188.94
2023-02-08T22:56:35.720Z,103188.34
2023-02-08T22:59:03.724Z,103193.53
2023-02-08T23:01:31.887Z,103190.84
2023-02-08T23:04:01.831Z,103191.03
2023-02-08T23:06:31.629Z,103188.00
2023-02-08T23:08:59.725Z,103190.16
2023-02-08T23:11:27.886Z,103192.78
2023-02-08T23:13:55.942Z,103191.50
2023-02-08T23:16:25.755Z,103185.78
2023-02-08T23:18:54.030Z,103179.75
2023-02-08T23:21:22.759Z,103187.38
2023-02-08T23:23:52.191Z,103183.88
2023-02-08T23:26:21.943Z,103173.94
2023-02-08T23:28:51.593Z,103168.41
2023-02-08T23:31:20.211Z,103167.69
2023-02-08T23:33:49.143Z,103164.66
2023-02-08T23:36:20.725Z,103162.28
2023-02-08T23:38:49.062Z,103165.00
2023-02-08T23:41:20.141Z,103162.88
2023-02-08T23:43:48.352Z,103160.34
2023-02-08T23:46:19.399Z,103157.63
2023-02-08T23:48:47.912Z,103165.88
2023-02-08T23:51:17.493Z,103160.50
2023-02-08T23:53:46.216Z,103160.09
2023-02-08T23:56:17.435Z,103151.06
2023-02-08T23:58:48.439Z,103144.94
